createdAt,value
2022-11-25T00:02:14.144Z,8.70
2022-11-25T00:12:17.084Z,8.68
2022-11-25T00:22:21.389Z,8.60
2022-11-25T00:32:24.589Z,8.86
2022-11-25T00:42:46.106Z,8.66
2022-11-25T00:52:49.133Z,8.66
2022-11-25T01:02:53.629Z,8.73
2022-11-25T01:12:56.999Z,8.80
2022-11-25T01:23:01.455Z,8.78
2022-11-25T01:33:04.489Z,8.97
2022-11-25T01:43:14.282Z,9.08
2022-11-25T01:53:20.381Z,9.25
2022-11-25T02:03:27.541Z,9.36
2022-11-25T02:13:30.908Z,9.44
2022-11-25T02:23:40.947Z,9.56
2022-11-25T02:33:47.078Z,9.76
2022-11-25T02:43:50.384Z,9.70
2022-11-25T02:53:57.654Z,9.71
2022-11-25T03:04:02.199Z,9.62
2022-11-25T03:14:07.099Z,9.55
2022-11-25T03:24:10.306Z,9.55
2022-11-25T03:34:14.691Z,9.52
2022-11-25T03:44:17.868Z,9.43
2022-11-25T03:54:22.863Z,9.52
2022-11-25T04:04:44.875Z,9.44
2022-11-25T04:14:49.482Z,9.58
2022-11-25T04:24:52.549Z,9.57
2022-11-25T04:35:02.127Z,9.59
2022-11-25T04:45:22.472Z,9.65
2022-11-25T04:55:29.214Z,9.46
2022-11-25T05:05:34.452Z,9.49
2022-11-25T05:15:38.796Z,9.41
2022-11-25T05:25:44.168Z,9.42
2022-11-25T05:36:05.183Z,9.39
2022-11-25T05:46:21.037Z,9.36
2022-11-25T05:56:29.608Z,9.57
2022-11-25T06:06:50.865Z,9.59
2022-11-25T06:16:55.454Z,9.56
2022-11-25T06:27:11.633Z,9.58
2022-11-25T06:37:17.108Z,9.65
2022-11-25T06:47:20.409Z,9.63
2022-11-25T06:57:24.825Z,9.62
2022-11-25T07:07:28.523Z,9.62
2022-11-25T07:17:33.454Z,9.66
2022-11-25T07:27:36.524Z,9.65
2022-11-25T07:37:40.843Z,9.60
2022-11-25T07:47:43.732Z,9.58
2022-11-25T07:57:47.817Z,9.50
2022-11-25T08:07:50.663Z,9.57
2022-11-25T08:17:55.204Z,9.77
2022-11-25T08:27:59.800Z,10.02
2022-11-25T08:38:03.990Z,9.94
2022-11-25T08:48:07.419Z,10.16
2022-11-25T08:58:13.306Z,10.44
2022-11-25T09:08:16.477Z,10.60
2022-11-25T09:18:25.964Z,10.69
2022-11-25T09:28:28.803Z,10.48
2022-11-25T09:38:34.147Z,10.77
2022-11-25T09:48:53.011Z,10.92
2022-11-25T09:59:02.766Z,11.15
2022-11-25T10:09:13.945Z,11.27
2022-11-25T10:19:27.389Z,11.39
2022-11-25T10:29:31.889Z,11.59
2022-11-25T10:39:36.551Z,11.72
2022-11-25T10:49:46.739Z,12.01
2022-11-25T10:59:59.011Z,12.11
2022-11-25T11:10:19.256Z,12.18
2022-11-25T11:20:26.015Z,11.92
2022-11-25T11:30:31.028Z,12.20
2022-11-25T11:40:40.140Z,11.97
2022-11-25T11:50:48.442Z,12.30
2022-11-25T12:01:05.613Z,12.71
2022-11-25T12:11:15.924Z,12.57
2022-11-25T12:21:41.873Z,12.30
2022-11-25T12:31:51.486Z,12.42
2022-11-25T12:42:01.052Z,12.24
2022-11-25T12:52:28.871Z,12.30
2022-11-25T13:10:55.632Z,12.65
2022-11-25T13:13:48.795Z,12.72
2022-11-25T13:23:56.425Z,12.65
2022-11-25T13:34:27.296Z,12.42
2022-11-25T13:44:35.498Z,12.57
2022-11-25T13:54:45.585Z,12.47
2022-11-25T14:05:00.326Z,12.37
2022-11-25T14:15:33.815Z,12.41
2022-11-25T14:25:50.477Z,12.35
2022-11-25T14:35:59.668Z,12.27
2022-11-25T14:46:15.698Z,12.29
2022-11-25T14:56:24.613Z,12.14
2022-11-25T15:06:35.393Z,12.11
2022-11-25T15:16:41.555Z,12.02
2022-11-25T15:26:52.316Z,11.95
2022-11-25T15:36:55.361Z,11.81
2022-11-25T15:47:05.185Z,11.45
2022-11-25T15:57:18.624Z,11.44
2022-11-25T16:07:24.800Z,11.65
2022-11-25T16:17:28.833Z,11.60
2022-11-25T16:27:38.206Z,11.60
2022-11-25T16:37:47.083Z,11.54
2022-11-25T16:47:53.626Z,11.48
2022-11-25T16:57:56.415Z,11.45
2022-11-25T17:08:00.598Z,11.43
2022-11-25T17:18:05.288Z,11.35
2022-11-25T17:28:15.652Z,11.31
2022-11-25T17:38:20.825Z,11.04
2022-11-25T17:48:25.658Z,11.22
2022-11-25T17:58:28.838Z,11.10
2022-11-25T18:08:33.191Z,11.02
2022-11-25T18:18:36.040Z,10.80
2022-11-25T18:28:40.319Z,10.95
2022-11-25T18:38:43.043Z,10.93
2022-11-25T18:48:47.338Z,10.86
2022-11-25T18:58:51.713Z,10.75
2022-11-25T19:08:55.927Z,10.51
2022-11-25T19:18:58.633Z,10.38
2022-11-25T19:29:08.044Z,10.52
2022-11-25T19:39:17.869Z,10.68
2022-11-25T19:49:22.907Z,10.65
2022-11-25T19:59:25.960Z,10.45
2022-11-25T20:09:30.353Z,10.29
2022-11-25T20:19:33.455Z,10.49
2022-11-25T20:29:37.799Z,10.37
2022-11-25T20:39:40.851Z,10.12
2022-11-25T20:49:46.434Z,10.10
2022-11-25T20:59:49.620Z,9.93
2022-11-25T21:09:54.275Z,9.87
2022-11-25T21:20:06.391Z,9.69
2022-11-25T21:30:18.418Z,9.65
2022-11-25T21:40:41.605Z,9.62
2022-11-25T21:50:44.472Z,10.02
2022-11-25T22:00:51.516Z,9.99
2022-11-25T22:10:56.699Z,9.90
2022-11-25T22:21:01.061Z,9.91
2022-11-25T22:31:08.026Z,9.82
2022-11-25T22:41:12.723Z,9.60
2022-11-25T22:51:18.756Z,9.61
2022-11-25T23:01:23.494Z,9.51
2022-11-25T23:11:27.417Z,9.47
2022-11-25T23:21:32.280Z,9.49
2022-11-25T23:31:36.482Z,9.44
2022-11-25T23:41:40.762Z,9.23
2022-11-25T23:51:43.607Z,9.17
